sensor_id;sensor_type;location;lat;lon;timestamp;P1;durP1;ratioP1;P2;durP2;ratioP2
14414;SDS011;7307;50.852;4.314;2022-07-23T00:00:52;4.88;;;2.47;;
14414;SDS011;7307;50.852;4.314;2022-07-23T00:03:17;4.75;;;2.50;;
14414;SDS011;7307;50.852;4.314;2022-07-23T00:05:43;2.47;;;2.28;;
14414;SDS011;7307;50.852;4.314;2022-07-23T00:08:08;3.72;;;2.53;;
14414;SDS011;7307;50.852;4.314;2022-07-23T00:10:34;5.78;;;2.35;;
14414;SDS011;7307;50.852;4.314;2022-07-23T00:13:00;2.95;;;2.47;;
14414;SDS011;7307;50.852;4.314;2022-07-23T00:15:26;4.03;;;2.50;;
14414;SDS011;7307;50.852;4.314;2022-07-23T00:17:51;4.70;;;2.80;;
14414;SDS011;7307;50.852;4.314;2022-07-23T00:20:17;4.78;;;2.40;;
14414;SDS011;7307;50.852;4.314;2022-07-23T00:22:47;4.97;;;2.38;;
14414;SDS011;7307;50.852;4.314;2022-07-23T00:25:12;4.50;;;2.40;;
14414;SDS011;7307;50.852;4.314;2022-07-23T00:27:38;5.15;;;2.63;;
14414;SDS011;7307;50.852;4.314;2022-07-23T00:30:04;3.58;;;1.92;;
14414;SDS011;7307;50.852;4.314;2022-07-23T00:32:30;5.78;;;2.55;;
14414;SDS011;7307;50.852;4.314;2022-07-23T00:34:55;5.95;;;2.60;;
14414;SDS011;7307;50.852;4.314;2022-07-23T00:37:21;3.60;;;2.40;;
14414;SDS011;7307;50.852;4.314;2022-07-23T00:39:46;3.40;;;2.55;;
14414;SDS011;7307;50.852;4.314;2022-07-23T00:42:12;3.88;;;2.63;;
14414;SDS011;7307;50.852;4.314;2022-07-23T00:44:37;5.38;;;2.83;;
14414;SDS011;7307;50.852;4.314;2022-07-23T00:47:03;3.95;;;2.55;;
14414;SDS011;7307;50.852;4.314;2022-07-23T00:49:30;4.63;;;2.33;;
14414;SDS011;7307;50.852;4.314;2022-07-23T00:51:56;4.65;;;2.33;;
14414;SDS011;7307;50.852;4.314;2022-07-23T00:54:25;5.43;;;2.55;;
14414;SDS011;7307;50.852;4.314;2022-07-23T00:56:51;4.47;;;2.95;;
14414;SDS011;7307;50.852;4.314;2022-07-23T00:59:17;5.05;;;2.40;;
14414;SDS011;7307;50.852;4.314;2022-07-23T01:01:43;2.65;;;2.42;;
14414;SDS011;7307;50.852;4.314;2022-07-23T01:04:10;4.22;;;2.40;;
14414;SDS011;7307;50.852;4.314;2022-07-23T01:06:37;3.45;;;2.42;;
14414;SDS011;7307;50.852;4.314;2022-07-23T01:09:03;2.55;;;2.35;;
14414;SDS011;7307;50.852;4.314;2022-07-23T01:11:31;6.55;;;2.55;;
14414;SDS011;7307;50.852;4.314;2022-07-23T01:13:59;2.97;;;2.00;;
14414;SDS011;7307;50.852;4.314;2022-07-23T01:16:32;3.65;;;2.30;;
14414;SDS011;7307;50.852;4.314;2022-07-23T01:18:57;5.20;;;2.35;;
14414;SDS011;7307;50.852;4.314;2022-07-23T01:21:23;5.15;;;2.42;;
14414;SDS011;7307;50.852;4.314;2022-07-23T01:23:49;3.15;;;2.20;;
14414;SDS011;7307;50.852;4.314;2022-07-23T01:26:15;3.53;;;2.40;;
14414;SDS011;7307;50.852;4.314;2022-07-23T01:28:42;4.95;;;2.63;;
14414;SDS011;7307;50.852;4.314;2022-07-23T01:31:08;2.90;;;1.92;;
14414;SDS011;7307;50.852;4.314;2022-07-23T01:33:33;3.20;;;2.17;;
14414;SDS011;7307;50.852;4.314;2022-07-23T01:35:59;3.95;;;2.50;;
14414;SDS011;7307;50.852;4.314;2022-07-23T01:38:24;3.13;;;2.50;;
14414;SDS011;7307;50.852;4.314;2022-07-23T01:40:50;4.72;;;2.58;;
14414;SDS011;7307;50.852;4.314;2022-07-23T01:43:16;3.20;;;2.35;;
14414;SDS011;7307;50.852;4.314;2022-07-23T01:45:41;4.30;;;2.50;;
14414;SDS011;7307;50.852;4.314;2022-07-23T01:48:09;4.45;;;2.65;;
14414;SDS011;7307;50.852;4.314;2022-07-23T01:50:34;4.53;;;2.25;;
14414;SDS011;7307;50.852;4.314;2022-07-23T01:53:00;2.38;;;2.10;;
14414;SDS011;7307;50.852;4.314;2022-07-23T01:55:26;2.38;;;2.13;;
14414;SDS011;7307;50.852;4.314;2022-07-23T01:57:51;2.63;;;2.15;;
14414;SDS011;7307;50.852;4.314;2022-07-23T02:00:17;3.67;;;2.10;;
14414;SDS011;7307;50.852;4.314;2022-07-23T02:02:42;3.85;;;2.28;;
14414;SDS011;7307;50.852;4.314;2022-07-23T02:05:08;2.47;;;2.10;;
14414;SDS011;7307;50.852;4.314;2022-07-23T02:07:34;4.18;;;2.38;;
14414;SDS011;7307;50.852;4.314;2022-07-23T02:10:00;3.97;;;2.13;;
14414;SDS011;7307;50.852;4.314;2022-07-23T02:12:25;2.58;;;2.08;;
14414;SDS011;7307;50.852;4.314;2022-07-23T02:14:51;2.42;;;2.17;;
14414;SDS011;7307;50.852;4.314;2022-07-23T02:17:16;3.00;;;2.38;;
14414;SDS011;7307;50.852;4.314;2022-07-23T02:19:42;2.58;;;2.38;;
14414;SDS011;7307;50.852;4.314;2022-07-23T02:22:08;3.70;;;1.95;;
14414;SDS011;7307;50.852;4.314;2022-07-23T02:24:33;2.80;;;2.08;;
14414;SDS011;7307;50.852;4.314;2022-07-23T02:26:59;3.10;;;2.15;;
14414;SDS011;7307;50.852;4.314;2022-07-23T02:29:24;3.53;;;2.50;;
14414;SDS011;7307;50.852;4.314;2022-07-23T02:31:50;3.13;;;2.40;;
14414;SDS011;7307;50.852;4.314;2022-07-23T02:34:16;2.40;;;2.20;;
14414;SDS011;7307;50.852;4.314;2022-07-23T02:36:41;2.50;;;2.30;;
14414;SDS011;7307;50.852;4.314;2022-07-23T02:39:07;2.40;;;2.20;;
14414;SDS011;7307;50.852;4.314;2022-07-23T02:41:33;2.50;;;2.30;;
14414;SDS011;7307;50.852;4.314;2022-07-23T02:43:58;3.38;;;2.70;;
14414;SDS011;7307;50.852;4.314;2022-07-23T02:46:24;3.45;;;2.40;;
14414;SDS011;7307;50.852;4.314;2022-07-23T02:48:49;5.60;;;2.45;;
14414;SDS011;7307;50.852;4.314;2022-07-23T02:51:15;3.70;;;2.25;;
14414;SDS011;7307;50.852;4.314;2022-07-23T02:53:41;3.15;;;2.03;;
14414;SDS011;7307;50.852;4.314;2022-07-23T02:56:06;2.53;;;2.10;;
14414;SDS011;7307;50.852;4.314;2022-07-23T02:58:32;2.60;;;2.40;;
14414;SDS011;7307;50.852;4.314;2022-07-23T03:00:58;2.33;;;2.13;;
14414;SDS011;7307;50.852;4.314;2022-07-23T03:03:23;2.58;;;2.15;;
14414;SDS011;7307;50.852;4.314;2022-07-23T03:05:49;3.42;;;2.10;;
14414;SDS011;7307;50.852;4.314;2022-07-23T03:08:14;3.40;;;2.17;;
14414;SDS011;7307;50.852;4.314;2022-07-23T03:10:40;2.67;;;1.90;;
14414;SDS011;7307;50.852;4.314;2022-07-23T03:13:06;2.58;;;2.38;;
14414;SDS011;7307;50.852;4.314;2022-07-23T03:15:31;4.38;;;2.17;;
14414;SDS011;7307;50.852;4.314;2022-07-23T03:17:57;2.20;;;1.98;;
14414;SDS011;7307;50.852;4.314;2022-07-23T03:20:22;3.75;;;2.30;;
14414;SDS011;7307;50.852;4.314;2022-07-23T03:22:48;2.40;;;2.20;;
14414;SDS011;7307;50.852;4.314;2022-07-23T03:25:13;2.33;;;2.13;;
14414;SDS011;7307;50.852;4.314;2022-07-23T03:27:39;2.97;;;2.47;;
14414;SDS011;7307;50.852;4.314;2022-07-23T03:30:05;2.67;;;2.30;;
14414;SDS011;7307;50.852;4.314;2022-07-23T03:32:31;3.60;;;2.33;;
14414;SDS011;7307;50.852;4.314;2022-07-23T03:34:56;3.25;;;2.28;;
14414;SDS011;7307;50.852;4.314;2022-07-23T03:37:22;2.33;;;2.13;;
14414;SDS011;7307;50.852;4.314;2022-07-23T03:39:48;3.03;;;1.95;;
14414;SDS011;7307;50.852;4.314;2022-07-23T03:42:13;4.68;;;2.15;;
14414;SDS011;7307;50.852;4.314;2022-07-23T03:44:39;3.30;;;2.22;;
14414;SDS011;7307;50.852;4.314;2022-07-23T03:47:05;3.40;;;1.83;;
14414;SDS011;7307;50.852;4.314;2022-07-23T03:49:31;3.20;;;2.42;;
14414;SDS011;7307;50.852;4.314;2022-07-23T03:51:57;4.60;;;1.92;;
14414;SDS011;7307;50.852;4.314;2022-07-23T03:54:22;3.00;;;2.00;;
14414;SDS011;7307;50.852;4.314;2022-07-23T03:56:48;3.05;;;2.20;;
14414;SDS011;7307;50.852;4.314;2022-07-23T03:59:14;2.63;;;1.73;;
14414;SDS011;7307;50.852;4.314;2022-07-23T04:01:39;3.85;;;2.10;;
14414;SDS011;7307;50.852;4.314;2022-07-23T04:04:05;2.30;;;2.00;;
14414;SDS011;7307;50.852;4.314;2022-07-23T04:06:33;2.45;;;2.25;;
14414;SDS011;7307;50.852;4.314;2022-07-23T04:08:59;2.65;;;2.03;;
14414;SDS011;7307;50.852;4.314;2022-07-23T04:11:24;3.20;;;2.03;;
14414;SDS011;7307;50.852;4.314;2022-07-23T04:13:50;2.08;;;1.90;;
14414;SDS011;7307;50.852;4.314;2022-07-23T04:16:16;3.28;;;2.40;;
14414;SDS011;7307;50.852;4.314;2022-07-23T04:18:41;1.90;;;1.80;;
14414;SDS011;7307;50.852;4.314;2022-07-23T04:21:07;3.25;;;2.08;;
14414;SDS011;7307;50.852;4.314;2022-07-23T04:23:32;2.58;;;2.08;;
14414;SDS011;7307;50.852;4.314;2022-07-23T04:25:58;2.65;;;1.92;;
14414;SDS011;7307;50.852;4.314;2022-07-23T04:28:23;2.90;;;2.03;;
14414;SDS011;7307;50.852;4.314;2022-07-23T04:30:49;2.28;;;1.88;;
14414;SDS011;7307;50.852;4.314;2022-07-23T04:33:14;3.67;;;2.20;;
14414;SDS011;7307;50.852;4.314;2022-07-23T04:35:40;2.10;;;1.75;;
14414;SDS011;7307;50.852;4.314;2022-07-23T04:38:06;2.45;;;2.15;;
14414;SDS011;7307;50.852;4.314;2022-07-23T04:40:31;2.28;;;1.75;;
14414;SDS011;7307;50.852;4.314;2022-07-23T04:42:57;3.00;;;2.05;;
14414;SDS011;7307;50.852;4.314;2022-07-23T04:45:23;2.28;;;2.00;;
14414;SDS011;7307;50.852;4.314;2022-07-23T04:47:49;2.15;;;1.92;;
14414;SDS011;7307;50.852;4.314;2022-07-23T04:50:15;4.78;;;2.17;;
14414;SDS011;7307;50.852;4.314;2022-07-23T04:52:46;2.50;;;2.30;;
14414;SDS011;7307;50.852;4.314;2022-07-23T04:55:13;3.72;;;1.90;;
14414;SDS011;7307;50.852;4.314;2022-07-23T04:57:39;2.40;;;2.20;;
14414;SDS011;7307;50.852;4.314;2022-07-23T05:00:04;2.30;;;2.08;;
14414;SDS011;7307;50.852;4.314;2022-07-23T05:02:30;2.70;;;2.03;;
14414;SDS011;7307;50.852;4.314;2022-07-23T05:04:56;2.45;;;2.05;;
14414;SDS011;7307;50.852;4.314;2022-07-23T05:07:21;2.90;;;1.95;;
14414;SDS011;7307;50.852;4.314;2022-07-23T05:09:47;4.03;;;1.80;;
14414;SDS011;7307;50.852;4.314;2022-07-23T05:12:13;2.20;;;1.88;;
14414;SDS011;7307;50.852;4.314;2022-07-23T05:14:38;2.22;;;1.92;;
14414;SDS011;7307;50.852;4.314;2022-07-23T05:17:04;2.28;;;2.00;;
14414;SDS011;7307;50.852;4.314;2022-07-23T05:19:29;2.13;;;1.92;;
14414;SDS011;7307;50.852;4.314;2022-07-23T05:21:55;3.03;;;1.92;;
14414;SDS011;7307;50.852;4.314;2022-07-23T05:24:21;3.08;;;1.92;;
14414;SDS011;7307;50.852;4.314;2022-07-23T05:26:46;2.88;;;1.95;;
14414;SDS011;7307;50.852;4.314;2022-07-23T05:29:12;2.78;;;2.13;;
14414;SDS011;7307;50.852;4.314;2022-07-23T05:31:37;3.35;;;2.03;;
14414;SDS011;7307;50.852;4.314;2022-07-23T05:34:03;3.10;;;1.95;;
14414;SDS011;7307;50.852;4.314;2022-07-23T05:36:30;1.95;;;1.70;;
14414;SDS011;7307;50.852;4.314;2022-07-23T05:38:56;3.08;;;2.00;;
14414;SDS011;7307;50.852;4.314;2022-07-23T05:41:22;2.08;;;1.88;;
14414;SDS011;7307;50.852;4.314;2022-07-23T05:43:47;2.10;;;1.90;;
14414;SDS011;7307;50.852;4.314;2022-07-23T05:46:13;2.22;;;1.83;;
14414;SDS011;7307;50.852;4.314;2022-07-23T05:48:38;2.60;;;2.08;;
14414;SDS011;7307;50.852;4.314;2022-07-23T05:51:04;4.03;;;2.08;;
14414;SDS011;7307;50.852;4.314;2022-07-23T05:53:31;2.88;;;2.05;;
14414;SDS011;7307;50.852;4.314;2022-07-23T05:55:57;2.80;;;1.88;;
14414;SDS011;7307;50.852;4.314;2022-07-23T05:58:23;4.80;;;2.25;;
14414;SDS011;7307;50.852;4.314;2022-07-23T06:00:49;2.92;;;1.80;;
14414;SDS011;7307;50.852;4.314;2022-07-23T06:03:14;2.75;;;2.10;;
14414;SDS011;7307;50.852;4.314;2022-07-23T06:05:40;2.33;;;1.88;;
14414;SDS011;7307;50.852;4.314;2022-07-23T06:08:05;2.42;;;2.08;;
14414;SDS011;7307;50.852;4.314;2022-07-23T06:10:31;3.83;;;1.95;;
14414;SDS011;7307;50.852;4.314;2022-07-23T06:12:57;3.80;;;2.17;;
14414;SDS011;7307;50.852;4.314;2022-07-23T06:15:22;2.80;;;2.10;;
14414;SDS011;7307;50.852;4.314;2022-07-23T06:17:48;2.20;;;2.00;;
14414;SDS011;7307;50.852;4.314;2022-07-23T06:20:14;2.15;;;1.88;;
14414;SDS011;7307;50.852;4.314;2022-07-23T06:22:40;3.15;;;2.20;;
14414;SDS011;7307;50.852;4.314;2022-07-23T06:25:06;2.72;;;1.73;;
14414;SDS011;7307;50.852;4.314;2022-07-23T06:27:32;2.00;;;1.77;;
14414;SDS011;7307;50.852;4.314;2022-07-23T06:29:57;2.67;;;2.22;;
14414;SDS011;7307;50.852;4.314;2022-07-23T06:32:23;2.55;;;2.00;;
14414;SDS011;7307;50.852;4.314;2022-07-23T06:34:48;2.28;;;1.90;;
14414;SDS011;7307;50.852;4.314;2022-07-23T06:37:17;2.13;;;1.83;;
14414;SDS011;7307;50.852;4.314;2022-07-23T06:39:42;2.05;;;1.90;;
14414;SDS011;7307;50.852;4.314;2022-07-23T06:42:08;2.35;;;1.80;;
14414;SDS011;7307;50.852;4.314;2022-07-23T06:44:35;2.35;;;1.90;;
14414;SDS011;7307;50.852;4.314;2022-07-23T06:47:00;3.83;;;2.00;;
14414;SDS011;7307;50.852;4.314;2022-07-23T06:49:26;4.15;;;1.98;;
14414;SDS011;7307;50.852;4.314;2022-07-23T06:51:52;2.15;;;1.98;;
14414;SDS011;7307;50.852;4.314;2022-07-23T06:54:17;2.70;;;1.80;;
14414;SDS011;7307;50.852;4.314;2022-07-23T06:56:43;2.83;;;1.95;;
14414;SDS011;7307;50.852;4.314;2022-07-23T06:59:09;3.10;;;1.88;;
14414;SDS011;7307;50.852;4.314;2022-07-23T07:01:34;2.72;;;2.00;;
14414;SDS011;7307;50.852;4.314;2022-07-23T07:04:00;3.25;;;2.05;;
14414;SDS011;7307;50.852;4.314;2022-07-23T07:06:25;2.50;;;2.03;;
14414;SDS011;7307;50.852;4.314;2022-07-23T07:08:51;2.70;;;1.90;;
14414;SDS011;7307;50.852;4.314;2022-07-23T07:11:17;2.13;;;1.90;;
14414;SDS011;7307;50.852;4.314;2022-07-23T07:13:42;2.47;;;2.00;;
14414;SDS011;7307;50.852;4.314;2022-07-23T07:16:08;3.45;;;2.05;;
14414;SDS011;7307;50.852;4.314;2022-07-23T07:18:34;1.73;;;1.63;;
14414;SDS011;7307;50.852;4.314;2022-07-23T07:20:59;2.50;;;2.10;;
14414;SDS011;7307;50.852;4.314;2022-07-23T07:23:25;2.28;;;2.03;;
14414;SDS011;7307;50.852;4.314;2022-07-23T07:25:50;2.42;;;1.90;;
14414;SDS011;7307;50.852;4.314;2022-07-23T07:28:16;2.65;;;1.85;;
14414;SDS011;7307;50.852;4.314;2022-07-23T07:30:42;3.28;;;2.00;;
14414;SDS011;7307;50.852;4.314;2022-07-23T07:33:07;2.65;;;1.80;;
14414;SDS011;7307;50.852;4.314;2022-07-23T07:35:33;2.08;;;1.90;;
14414;SDS011;7307;50.852;4.314;2022-07-23T07:37:59;1.80;;;1.60;;
14414;SDS011;7307;50.852;4.314;2022-07-23T07:40:25;2.20;;;2.00;;
14414;SDS011;7307;50.852;4.314;2022-07-23T07:42:52;2.22;;;2.03;;
14414;SDS011;7307;50.852;4.314;2022-07-23T07:45:22;2.33;;;2.10;;
14414;SDS011;7307;50.852;4.314;2022-07-23T07:47:49;2.05;;;1.60;;
14414;SDS011;7307;50.852;4.314;2022-07-23T07:50:15;2.17;;;1.77;;
14414;SDS011;7307;50.852;4.314;2022-07-23T07:52:41;3.08;;;2.00;;
14414;SDS011;7307;50.852;4.314;2022-07-23T07:55:08;2.00;;;1.80;;
14414;SDS011;7307;50.852;4.314;2022-07-23T07:57:34;3.53;;;1.60;;
14414;SDS011;7307;50.852;4.314;2022-07-23T08:00:00;2.08;;;1.90;;
14414;SDS011;7307;50.852;4.314;2022-07-23T08:02:26;2.53;;;2.10;;
14414;SDS011;7307;50.852;4.314;2022-07-23T08:04:52;3.35;;;2.15;;
14414;SDS011;7307;50.852;4.314;2022-07-23T08:07:18;6.68;;;2.63;;
14414;SDS011;7307;50.852;4.314;2022-07-23T08:09:44;5.47;;;2.10;;
14414;SDS011;7307;50.852;4.314;2022-07-23T08:12:10;4.80;;;3.17;;
14414;SDS011;7307;50.852;4.314;2022-07-23T08:14:35;5.65;;;3.80;;
14414;SDS011;7307;50.852;4.314;2022-07-23T08:17:01;7.70;;;4.70;;
14414;SDS011;7307;50.852;4.314;2022-07-23T08:19:27;6.80;;;4.05;;
14414;SDS011;7307;50.852;4.314;2022-07-23T08:21:52;11.18;;;5.18;;
14414;SDS011;7307;50.852;4.314;2022-07-23T08:24:18;7.53;;;4.63;;
14414;SDS011;7307;50.852;4.314;2022-07-23T08:26:43;6.07;;;4.32;;
14414;SDS011;7307;50.852;4.314;2022-07-23T08:29:09;6.57;;;3.40;;
14414;SDS011;7307;50.852;4.314;2022-07-23T08:31:35;7.88;;;3.10;;
14414;SDS011;7307;50.852;4.314;2022-07-23T08:34:01;5.05;;;2.88;;
14414;SDS011;7307;50.852;4.314;2022-07-23T08:36:27;5.65;;;2.95;;
14414;SDS011;7307;50.852;4.314;2022-07-23T08:38:53;3.65;;;2.60;;
14414;SDS011;7307;50.852;4.314;2022-07-23T08:41:19;2.90;;;2.20;;
14414;SDS011;7307;50.852;4.314;2022-07-23T08:43:45;4.70;;;2.67;;
14414;SDS011;7307;50.852;4.314;2022-07-23T08:46:11;4.88;;;2.13;;
14414;SDS011;7307;50.852;4.314;2022-07-23T08:48:38;4.07;;;2.30;;
14414;SDS011;7307;50.852;4.314;2022-07-23T08:51:05;4.45;;;2.42;;
14414;SDS011;7307;50.852;4.314;2022-07-23T08:53:32;5.15;;;1.92;;
14414;SDS011;7307;50.852;4.314;2022-07-23T08:56:01;4.57;;;2.25;;
14414;SDS011;7307;50.852;4.314;2022-07-23T08:58:28;3.80;;;2.20;;
14414;SDS011;7307;50.852;4.314;2022-07-23T09:00:54;2.72;;;2.00;;
14414;SDS011;7307;50.852;4.314;2022-07-23T09:03:24;4.43;;;2.30;;
14414;SDS011;7307;50.852;4.314;2022-07-23T09:05:54;3.50;;;1.90;;
14414;SDS011;7307;50.852;4.314;2022-07-23T09:08:23;2.80;;;2.22;;
14414;SDS011;7307;50.852;4.314;2022-07-23T09:11:01;2.53;;;2.10;;
14414;SDS011;7307;50.852;4.314;2022-07-23T09:13:51;2.53;;;1.85;;
14414;SDS011;7307;50.852;4.314;2022-07-23T09:16:25;13.68;;;2.83;;
14414;SDS011;7307;50.852;4.314;2022-07-23T09:19:01;4.90;;;2.83;;
14414;SDS011;7307;50.852;4.314;2022-07-23T09:21:31;5.38;;;3.60;;
14414;SDS011;7307;50.852;4.314;2022-07-23T09:26:37;7.88;;;3.60;;
14414;SDS011;7307;50.852;4.314;2022-07-23T09:29:06;4.65;;;3.10;;
14414;SDS011;7307;50.852;4.314;2022-07-23T09:31:34;6.65;;;3.53;;
14414;SDS011;7307;50.852;4.314;2022-07-23T09:34:18;8.38;;;3.97;;
14414;SDS011;7307;50.852;4.314;2022-07-23T09:36:47;5.93;;;3.70;;
14414;SDS011;7307;50.852;4.314;2022-07-23T09:39:14;5.65;;;3.40;;
14414;SDS011;7307;50.852;4.314;2022-07-23T09:41:43;5.18;;;3.28;;
14414;SDS011;7307;50.852;4.314;2022-07-23T09:44:15;4.72;;;3.58;;
14414;SDS011;7307;50.852;4.314;2022-07-23T09:46:42;5.63;;;3.40;;
14414;SDS011;7307;50.852;4.314;2022-07-23T09:49:10;6.82;;;3.15;;
14414;SDS011;7307;50.852;4.314;2022-07-23T09:51:57;3.25;;;2.95;;
14414;SDS011;7307;50.852;4.314;2022-07-23T09:54:33;4.28;;;2.97;;
14414;SDS011;7307;50.852;4.314;2022-07-23T09:57:07;3.47;;;2.45;;
14414;SDS011;7307;50.852;4.314;2022-07-23T09:59:40;3.15;;;2.47;;
14414;SDS011;7307;50.852;4.314;2022-07-23T10:02:09;4.45;;;2.97;;
14414;SDS011;7307;50.852;4.314;2022-07-23T10:04:40;4.45;;;3.08;;
14414;SDS011;7307;50.852;4.314;2022-07-23T10:07:07;4.30;;;2.83;;
14414;SDS011;7307;50.852;4.314;2022-07-23T10:09:36;4.40;;;3.08;;
14414;SDS011;7307;50.852;4.314;2022-07-23T10:12:04;4.22;;;2.78;;
14414;SDS011;7307;50.852;4.314;2022-07-23T10:14:45;4.70;;;2.67;;
14414;SDS011;7307;50.852;4.314;2022-07-23T10:17:20;7.55;;;3.22;;
14414;SDS011;7307;50.852;4.314;2022-07-23T10:19:49;6.15;;;3.05;;
14414;SDS011;7307;50.852;4.314;2022-07-23T10:22:18;5.85;;;3.10;;
14414;SDS011;7307;50.852;4.314;2022-07-23T10:24:55;6.68;;;3.05;;
14414;SDS011;7307;50.852;4.314;2022-07-23T10:27:48;4.30;;;2.40;;
14414;SDS011;7307;50.852;4.314;2022-07-23T10:35:56;4.32;;;2.72;;
14414;SDS011;7307;50.852;4.314;2022-07-23T10:41:01;3.53;;;2.92;;
14414;SDS011;7307;50.852;4.314;2022-07-23T10:43:29;4.07;;;2.50;;
14414;SDS011;7307;50.852;4.314;2022-07-23T10:54:38;4.45;;;2.70;;
14414;SDS011;7307;50.852;4.314;2022-07-23T10:57:05;5.30;;;3.00;;
14414;SDS011;7307;50.852;4.314;2022-07-23T10:59:58;6.65;;;2.60;;
14414;SDS011;7307;50.852;4.314;2022-07-23T11:02:32;5.70;;;2.67;;
14414;SDS011;7307;50.852;4.314;2022-07-23T11:05:00;7.57;;;2.92;;
14414;SDS011;7307;50.852;4.314;2022-07-23T11:07:28;4.80;;;2.90;;
14414;SDS011;7307;50.852;4.314;2022-07-23T11:09:54;5.78;;;3.00;;
14414;SDS011;7307;50.852;4.314;2022-07-23T11:15:02;5.13;;;2.92;;
14414;SDS011;7307;50.852;4.314;2022-07-23T11:17:33;5.57;;;2.60;;
14414;SDS011;7307;50.852;4.314;2022-07-23T11:22:40;4.07;;;2.97;;
14414;SDS011;7307;50.852;4.314;2022-07-23T11:25:34;4.97;;;2.67;;
14414;SDS011;7307;50.852;4.314;2022-07-23T11:28:10;5.15;;;2.78;;
14414;SDS011;7307;50.852;4.314;2022-07-23T11:30:42;3.67;;;2.70;;
14414;SDS011;7307;50.852;4.314;2022-07-23T11:35:42;5.78;;;3.13;;
14414;SDS011;7307;50.852;4.314;2022-07-23T11:38:16;4.05;;;2.88;;
14414;SDS011;7307;50.852;4.314;2022-07-23T11:40:46;6.65;;;3.08;;
14414;SDS011;7307;50.852;4.314;2022-07-23T11:43:13;5.55;;;3.42;;
14414;SDS011;7307;50.852;4.314;2022-07-23T11:45:47;3.80;;;3.03;;
14414;SDS011;7307;50.852;4.314;2022-07-23T11:48:17;7.40;;;3.28;;
14414;SDS011;7307;50.852;4.314;2022-07-23T11:50:47;3.80;;;2.80;;
14414;SDS011;7307;50.852;4.314;2022-07-23T11:53:15;3.22;;;2.47;;
14414;SDS011;7307;50.852;4.314;2022-07-23T11:56:06;4.22;;;2.88;;
14414;SDS011;7307;50.852;4.314;2022-07-23T11:58:36;2.67;;;2.40;;
14414;SDS011;7307;50.852;4.314;2022-07-23T12:03:28;3.75;;;2.67;;
14414;SDS011;7307;50.852;4.314;2022-07-23T12:06:04;3.65;;;2.65;;
14414;SDS011;7307;50.852;4.314;2022-07-23T12:08:30;3.92;;;2.58;;
14414;SDS011;7307;50.852;4.314;2022-07-23T12:10:55;4.10;;;2.28;;
14414;SDS011;7307;50.852;4.314;2022-07-23T12:13:21;3.88;;;2.80;;
14414;SDS011;7307;50.852;4.314;2022-07-23T12:15:50;3.45;;;2.35;;
14414;SDS011;7307;50.852;4.314;2022-07-23T12:18:23;3.10;;;2.13;;
14414;SDS011;7307;50.852;4.314;2022-07-23T12:20:51;4.63;;;2.70;;
14414;SDS011;7307;50.852;4.314;2022-07-23T12:23:21;2.63;;;2.38;;
14414;SDS011;7307;50.852;4.314;2022-07-23T12:25:49;3.65;;;2.50;;
14414;SDS011;7307;50.852;4.314;2022-07-23T12:28:22;3.28;;;2.55;;
14414;SDS011;7307;50.852;4.314;2022-07-23T12:31:03;3.22;;;2.38;;
14414;SDS011;7307;50.852;4.314;2022-07-23T12:33:38;3.33;;;2.47;;
14414;SDS011;7307;50.852;4.314;2022-07-23T12:36:08;3.58;;;2.72;;
14414;SDS011;7307;50.852;4.314;2022-07-23T12:38:41;3.47;;;2.22;;
14414;SDS011;7307;50.852;4.314;2022-07-23T12:41:09;2.70;;;2.22;;
14414;SDS011;7307;50.852;4.314;2022-07-23T12:43:38;3.10;;;2.05;;
14414;SDS011;7307;50.852;4.314;2022-07-23T12:46:15;4.00;;;2.85;;
14414;SDS011;7307;50.852;4.314;2022-07-23T12:51:18;2.65;;;2.10;;
14414;SDS011;7307;50.852;4.314;2022-07-23T12:53:49;3.85;;;2.67;;
14414;SDS011;7307;50.852;4.314;2022-07-23T12:56:18;2.75;;;2.25;;
14414;SDS011;7307;50.852;4.314;2022-07-23T13:03:55;3.35;;;2.10;;
14414;SDS011;7307;50.852;4.314;2022-07-23T13:06:24;3.50;;;2.20;;
14414;SDS011;7307;50.852;4.314;2022-07-23T13:08:51;2.70;;;2.20;;
14414;SDS011;7307;50.852;4.314;2022-07-23T13:11:16;2.42;;;2.22;;
14414;SDS011;7307;50.852;4.314;2022-07-23T13:13:42;2.97;;;2.38;;
14414;SDS011;7307;50.852;4.314;2022-07-23T13:16:08;2.53;;;2.22;;
14414;SDS011;7307;50.852;4.314;2022-07-23T13:18:33;3.38;;;2.30;;
14414;SDS011;7307;50.852;4.314;2022-07-23T13:20:59;2.63;;;2.30;;
14414;SDS011;7307;50.852;4.314;2022-07-23T13:23:25;3.80;;;2.60;;
14414;SDS011;7307;50.852;4.314;2022-07-23T13:25:51;2.70;;;2.08;;
14414;SDS011;7307;50.852;4.314;2022-07-23T13:28:18;2.92;;;2.40;;
14414;SDS011;7307;50.852;4.314;2022-07-23T13:30:46;2.40;;;2.20;;
14414;SDS011;7307;50.852;4.314;2022-07-23T13:33:14;2.50;;;2.03;;
14414;SDS011;7307;50.852;4.314;2022-07-23T13:35:41;2.75;;;2.30;;
14414;SDS011;7307;50.852;4.314;2022-07-23T13:38:07;3.67;;;2.08;;
14414;SDS011;7307;50.852;4.314;2022-07-23T13:40:33;2.35;;;2.13;;
14414;SDS011;7307;50.852;4.314;2022-07-23T13:43:01;2.63;;;2.20;;
14414;SDS011;7307;50.852;4.314;2022-07-23T13:45:26;4.15;;;2.30;;
14414;SDS011;7307;50.852;4.314;2022-07-23T13:47:52;4.22;;;2.22;;
14414;SDS011;7307;50.852;4.314;2022-07-23T13:50:18;2.55;;;2.30;;
14414;SDS011;7307;50.852;4.314;2022-07-23T13:52:43;3.60;;;2.65;;
14414;SDS011;7307;50.852;4.314;2022-07-23T13:55:10;3.15;;;2.42;;
14414;SDS011;7307;50.852;4.314;2022-07-23T13:57:36;2.45;;;2.25;;
14414;SDS011;7307;50.852;4.314;2022-07-23T14:00:02;2.28;;;2.08;;
14414;SDS011;7307;50.852;4.314;2022-07-23T14:02:31;2.25;;;2.05;;
14414;SDS011;7307;50.852;4.314;2022-07-23T14:04:56;2.40;;;2.20;;
14414;SDS011;7307;50.852;4.314;2022-07-23T14:07:22;2.42;;;2.20;;
14414;SDS011;7307;50.852;4.314;2022-07-23T14:09:47;2.30;;;2.10;;
14414;SDS011;7307;50.852;4.314;2022-07-23T14:12:13;2.03;;;1.83;;
14414;SDS011;7307;50.852;4.314;2022-07-23T14:14:38;2.25;;;2.05;;
14414;SDS011;7307;50.852;4.314;2022-07-23T14:17:04;3.22;;;2.00;;
14414;SDS011;7307;50.852;4.314;2022-07-23T14:19:30;2.38;;;2.17;;
14414;SDS011;7307;50.852;4.314;2022-07-23T14:21:56;2.50;;;2.30;;
14414;SDS011;7307;50.852;4.314;2022-07-23T14:24:21;3.35;;;2.28;;
14414;SDS011;7307;50.852;4.314;2022-07-23T14:26:47;2.20;;;2.00;;
14414;SDS011;7307;50.852;4.314;2022-07-23T14:29:13;2.28;;;2.05;;
14414;SDS011;7307;50.852;4.314;2022-07-23T14:31:38;2.25;;;2.05;;
14414;SDS011;7307;50.852;4.314;2022-07-23T14:34:04;2.25;;;2.10;;
14414;SDS011;7307;50.852;4.314;2022-07-23T14:36:30;3.05;;;2.00;;
14414;SDS011;7307;50.852;4.314;2022-07-23T14:38:55;2.60;;;2.30;;
14414;SDS011;7307;50.852;4.314;2022-07-23T14:41:21;2.17;;;1.98;;
14414;SDS011;7307;50.852;4.314;2022-07-23T14:43:47;2.67;;;2.35;;
14414;SDS011;7307;50.852;4.314;2022-07-23T14:46:12;2.20;;;1.95;;
14414;SDS011;7307;50.852;4.314;2022-07-23T14:48:38;1.85;;;1.75;;
14414;SDS011;7307;50.852;4.314;2022-07-23T14:51:04;2.85;;;2.40;;
14414;SDS011;7307;50.852;4.314;2022-07-23T14:53:30;1.92;;;1.83;;
14414;SDS011;7307;50.852;4.314;2022-07-23T14:55:55;2.15;;;1.95;;
14414;SDS011;7307;50.852;4.314;2022-07-23T14:58:24;2.58;;;2.03;;
14414;SDS011;7307;50.852;4.314;2022-07-23T15:00:50;3.03;;;2.10;;
14414;SDS011;7307;50.852;4.314;2022-07-23T15:03:16;2.25;;;1.98;;
14414;SDS011;7307;50.852;4.314;2022-07-23T15:05:42;3.05;;;2.05;;
14414;SDS011;7307;50.852;4.314;2022-07-23T15:08:07;2.15;;;1.92;;
14414;SDS011;7307;50.852;4.314;2022-07-23T15:10:33;2.22;;;2.03;;
14414;SDS011;7307;50.852;4.314;2022-07-23T15:12:59;2.17;;;2.00;;
14414;SDS011;7307;50.852;4.314;2022-07-23T15:15:25;3.47;;;2.20;;
14414;SDS011;7307;50.852;4.314;2022-07-23T15:17:53;3.35;;;2.40;;
14414;SDS011;7307;50.852;4.314;2022-07-23T15:20:19;1.90;;;1.80;;
14414;SDS011;7307;50.852;4.314;2022-07-23T15:22:44;2.30;;;2.10;;
14414;SDS011;7307;50.852;4.314;2022-07-23T15:25:12;2.38;;;2.17;;
14414;SDS011;7307;50.852;4.314;2022-07-23T15:27:38;2.28;;;2.08;;
14414;SDS011;7307;50.852;4.314;2022-07-23T15:30:04;1.98;;;1.85;;
14414;SDS011;7307;50.852;4.314;2022-07-23T15:32:31;1.92;;;1.83;;
14414;SDS011;7307;50.852;4.314;2022-07-23T15:34:56;2.85;;;2.25;;
14414;SDS011;7307;50.852;4.314;2022-07-23T15:37:22;2.10;;;2.00;;